createdAt,value
2017-02-16T00:00:35.775Z,7.67
2017-02-16T00:01:44.792Z,7.63
2017-02-16T00:02:53.807Z,7.55
2017-02-16T00:04:02.809Z,7.53
2017-02-16T00:05:11.944Z,7.5
2017-02-16T00:06:21.021Z,7.57
2017-02-16T00:07:30.025Z,7.57
2017-02-16T00:08:39.006Z,7.53
2017-02-16T00:09:48.087Z,7.58
2017-02-16T00:10:57.086Z,7.53
2017-02-16T00:12:06.197Z,7.45
2017-02-16T00:13:15.284Z,7.45
2017-02-16T00:14:24.479Z,7.46
2017-02-16T00:15:33.481Z,7.48
2017-02-16T00:16:42.476Z,7.37
2017-02-16T00:17:51.549Z,7.34
2017-02-16T00:19:00.538Z,7.39
2017-02-16T00:20:09.540Z,7.35
2017-02-16T00:21:18.723Z,7.39
2017-02-16T00:22:27.797Z,7.34
2017-02-16T00:23:36.937Z,7.39
2017-02-16T00:24:45.969Z,7.27
2017-02-16T00:25:55.381Z,7.28
2017-02-16T00:27:04.419Z,7.34
2017-02-16T00:28:13.817Z,7.35
2017-02-16T00:29:22.821Z,7.35
2017-02-16T00:30:31.981Z,7.37
2017-02-16T00:31:40.996Z,7.31
2017-02-16T00:32:50.517Z,7.34
2017-02-16T00:33:59.513Z,7.39
2017-02-16T00:35:08.689Z,7.23
2017-02-16T00:36:18.079Z,7.28
2017-02-16T00:37:27.105Z,7.3
2017-02-16T00:38:36.106Z,7.23
2017-02-16T00:39:45.124Z,7.28
2017-02-16T00:40:54.215Z,7.31
2017-02-16T00:42:03.210Z,7.27
2017-02-16T00:43:12.202Z,7.27
2017-02-16T00:44:21.189Z,7.28
2017-02-16T00:45:30.286Z,7.28
2017-02-16T00:46:39.265Z,7.27
2017-02-16T00:47:48.330Z,7.25
2017-02-16T00:48:57.356Z,7.3
2017-02-16T00:50:06.542Z,7.24
2017-02-16T00:51:15.616Z,7.24
2017-02-16T00:52:24.611Z,7.23
2017-02-16T00:53:33.633Z,7.25
2017-02-16T00:54:42.631Z,7.21
2017-02-16T00:55:51.623Z,7.17
2017-02-16T00:57:00.622Z,7.25
2017-02-16T00:58:09.776Z,7.21
2017-02-16T00:59:18.774Z,7.28
2017-02-16T01:00:27.852Z,7.17
2017-02-16T01:01:36.948Z,7.2
2017-02-16T01:02:46.050Z,7.13
2017-02-16T01:03:55.083Z,7.15
2017-02-16T01:05:04.185Z,7.16
2017-02-16T01:06:13.269Z,7.13
2017-02-16T01:07:22.283Z,7.13
2017-02-16T01:08:31.552Z,7.16
2017-02-16T01:09:40.540Z,7.16
2017-02-16T01:10:49.587Z,7.16
2017-02-16T01:11:58.712Z,7.1
2017-02-16T01:13:07.717Z,7.15
2017-02-16T01:14:16.698Z,7.16
2017-02-16T01:15:25.695Z,7.12
2017-02-16T01:16:34.706Z,7.1
2017-02-16T01:17:43.717Z,7.13
2017-02-16T01:18:52.712Z,7.12
2017-02-16T01:20:01.959Z,7.06
2017-02-16T01:21:10.963Z,7.09
2017-02-16T01:22:20.057Z,7.16
2017-02-16T01:23:29.043Z,7.06
2017-02-16T01:24:38.027Z,7.03
2017-02-16T01:25:47.107Z,7.06
2017-02-16T01:26:56.516Z,7.02
2017-02-16T01:28:05.501Z,7.03
2017-02-16T01:29:14.504Z,7.03
2017-02-16T01:30:23.486Z,7.02
2017-02-16T01:31:32.570Z,6.98
2017-02-16T01:32:41.577Z,6.99
2017-02-16T01:33:50.586Z,7.09
2017-02-16T01:34:59.990Z,7.05
2017-02-16T01:36:09.031Z,6.97
2017-02-16T01:37:18.039Z,7.07
2017-02-16T01:38:27.122Z,7.05
2017-02-16T01:39:36.121Z,7.02
2017-02-16T01:40:45.115Z,6.98
2017-02-16T01:41:54.144Z,7.03
2017-02-16T01:43:03.217Z,6.97
2017-02-16T01:44:12.209Z,6.99
2017-02-16T01:45:21.210Z,6.92
2017-02-16T01:46:30.209Z,6.94
2017-02-16T01:47:39.194Z,6.88
2017-02-16T01:48:48.194Z,6.84
2017-02-16T01:49:57.270Z,6.88
2017-02-16T01:51:06.263Z,6.87
2017-02-16T01:52:15.239Z,6.87
2017-02-16T01:53:24.244Z,6.84
2017-02-16T01:54:33.233Z,6.73
2017-02-16T01:55:42.247Z,6.91
2017-02-16T01:56:51.224Z,6.74
2017-02-16T01:58:00.217Z,6.73
2017-02-16T01:59:09.214Z,6.87
2017-02-16T02:00:18.222Z,6.79
2017-02-16T02:01:27.223Z,6.79
2017-02-16T02:02:36.211Z,6.77
2017-02-16T02:03:45.200Z,6.73
2017-02-16T02:04:54.178Z,6.73
2017-02-16T02:06:03.215Z,6.73
2017-02-16T02:07:12.292Z,6.66
2017-02-16T02:08:21.283Z,6.73
2017-02-16T02:09:30.374Z,6.71
2017-02-16T02:10:39.423Z,6.69
2017-02-16T02:11:48.419Z,6.67
2017-02-16T02:12:57.420Z,6.62
2017-02-16T02:14:06.415Z,6.67
2017-02-16T02:15:15.528Z,6.7
2017-02-16T02:16:24.532Z,6.62
2017-02-16T02:17:33.532Z,6.66
2017-02-16T02:18:42.521Z,6.56
2017-02-16T02:19:51.950Z,6.56
2017-02-16T02:21:00.945Z,6.56
2017-02-16T02:22:09.937Z,6.51
2017-02-16T02:23:19.095Z,6.49
2017-02-16T02:24:28.086Z,6.59
2017-02-16T02:25:37.189Z,6.55
2017-02-16T02:26:46.177Z,6.51
2017-02-16T02:27:55.171Z,6.64
2017-02-16T02:29:04.163Z,6.55
2017-02-16T02:30:13.158Z,6.46
2017-02-16T02:31:22.147Z,6.51
2017-02-16T02:32:31.131Z,6.55
2017-02-16T02:33:40.520Z,6.55
2017-02-16T02:34:49.590Z,6.51
2017-02-16T02:35:59.081Z,6.52
2017-02-16T02:37:08.094Z,6.48
2017-02-16T02:38:17.501Z,6.51
2017-02-16T02:39:26.515Z,6.48
2017-02-16T02:40:35.919Z,6.46
2017-02-16T02:41:44.923Z,6.48
2017-02-16T02:42:54.000Z,6.44
2017-02-16T02:44:03.086Z,6.44
2017-02-16T02:45:16.969Z,6.51
2017-02-16T02:46:26.003Z,6.38
2017-02-16T02:47:35.423Z,6.4
2017-02-16T02:48:44.503Z,6.37
2017-02-16T02:49:53.487Z,6.36
2017-02-16T02:51:02.511Z,6.36
2017-02-16T02:52:11.519Z,6.27
2017-02-16T02:53:20.933Z,6.31
2017-02-16T02:54:29.938Z,6.27
2017-02-16T02:55:39.338Z,6.27
2017-02-16T02:56:48.330Z,6.25
2017-02-16T02:57:57.727Z,6.33
2017-02-16T02:59:06.909Z,6.27
2017-02-16T03:00:15.900Z,6.3
2017-02-16T03:01:24.889Z,6.33
2017-02-16T03:02:33.888Z,6.31
2017-02-16T03:03:42.878Z,6.25
2017-02-16T03:04:51.858Z,6.27
2017-02-16T03:06:00.844Z,6.15
2017-02-16T03:07:09.831Z,6.19
2017-02-16T03:08:18.814Z,6.17
2017-02-16T03:09:27.801Z,6.22
2017-02-16T03:10:36.797Z,6.33
2017-02-16T03:11:45.896Z,6.11
2017-02-16T03:12:54.894Z,6.11
2017-02-16T03:14:03.876Z,6.15
2017-02-16T03:15:12.899Z,6.19
2017-02-16T03:16:21.897Z,6.19
2017-02-16T03:17:30.980Z,6.18
2017-02-16T03:18:40.161Z,6.15
2017-02-16T03:19:49.141Z,6.25
2017-02-16T03:20:58.132Z,6.18
2017-02-16T03:22:07.114Z,6.18
2017-02-16T03:23:16.117Z,6.17
2017-02-16T03:24:25.101Z,6.15
2017-02-16T03:25:34.084Z,6.19
2017-02-16T03:26:43.072Z,6.21
2017-02-16T03:27:52.073Z,6.14
2017-02-16T03:29:01.056Z,6.12
2017-02-16T03:30:10.163Z,6.22
2017-02-16T03:31:19.238Z,6.19
2017-02-16T03:32:28.230Z,6.18
2017-02-16T03:33:37.314Z,6.15
2017-02-16T03:34:46.306Z,6.17
2017-02-16T03:35:55.394Z,6.12
2017-02-16T03:37:04.487Z,6.17
2017-02-16T03:38:13.473Z,6.18
2017-02-16T03:39:22.454Z,6.14
2017-02-16T03:40:31.436Z,6.19
2017-02-16T03:41:40.413Z,6.14
2017-02-16T03:42:49.401Z,6.04
2017-02-16T03:43:58.385Z,6.17
2017-02-16T03:45:07.466Z,6
2017-02-16T03:46:16.451Z,6.09
2017-02-16T03:47:25.466Z,6.03
2017-02-16T03:48:34.460Z,6
2017-02-16T03:49:43.436Z,6.03
2017-02-16T03:50:52.413Z,6.08
2017-02-16T03:52:01.410Z,6.03
2017-02-16T03:53:10.430Z,6.08
2017-02-16T03:54:19.431Z,6.03
2017-02-16T03:55:28.853Z,6.08
2017-02-16T03:56:37.842Z,6.01
2017-02-16T03:57:47.319Z,6.09
2017-02-16T03:58:56.326Z,6.01
2017-02-16T04:00:05.317Z,6.08
2017-02-16T04:01:14.314Z,6
2017-02-16T04:02:23.322Z,6.03
2017-02-16T04:03:32.503Z,6.08
2017-02-16T04:04:41.483Z,5.96
2017-02-16T04:05:50.492Z,6.06
2017-02-16T04:06:59.519Z,6.09
2017-02-16T04:08:08.506Z,6.09
2017-02-16T04:09:17.487Z,6.06
2017-02-16T04:10:26.489Z,6.04
2017-02-16T04:11:35.496Z,6.03
2017-02-16T04:12:44.498Z,5.97
2017-02-16T04:13:53.484Z,6.04
2017-02-16T04:15:02.610Z,6.03
2017-02-16T04:16:11.618Z,6.03
2017-02-16T04:17:20.626Z,6.03
2017-02-16T04:18:29.606Z,5.97
2017-02-16T04:19:38.617Z,6
2017-02-16T04:20:47.610Z,6.04
2017-02-16T04:21:56.686Z,6
2017-02-16T04:23:05.691Z,5.99
2017-02-16T04:24:14.675Z,5.99
2017-02-16T04:25:23.661Z,6.04
2017-02-16T04:26:32.651Z,5.94
2017-02-16T04:27:41.648Z,5.97
2017-02-16T04:28:50.642Z,5.96
2017-02-16T04:29:59.645Z,5.9
2017-02-16T04:31:08.633Z,5.93
2017-02-16T04:32:17.625Z,5.99
2017-02-16T04:33:26.627Z,5.99
2017-02-16T04:34:35.646Z,5.96
2017-02-16T04:35:44.644Z,5.94
2017-02-16T04:36:53.656Z,6
2017-02-16T04:38:02.644Z,5.99
2017-02-16T04:39:11.633Z,6
2017-02-16T04:40:20.613Z,5.94
2017-02-16T04:41:29.616Z,5.97
2017-02-16T04:42:39.019Z,5.93
2017-02-16T04:43:48.000Z,6.01
2017-02-16T04:44:57.481Z,5.99
2017-02-16T04:46:06.469Z,6
2017-02-16T04:47:15.467Z,5.93
2017-02-16T04:48:24.475Z,5.96
2017-02-16T04:49:33.452Z,5.96
2017-02-16T04:50:42.441Z,5.9
2017-02-16T04:51:51.521Z,6.01
2017-02-16T04:53:00.508Z,5.91
2017-02-16T04:54:09.494Z,5.94
2017-02-16T04:55:18.481Z,5.96
2017-02-16T04:56:27.587Z,5.91
2017-02-16T04:57:36.605Z,5.97
2017-02-16T04:58:45.822Z,5.83
2017-02-16T04:59:54.822Z,5.81
2017-02-16T05:01:03.825Z,5.83
2017-02-16T05:02:13.213Z,5.81
2017-02-16T05:03:22.220Z,5.83
2017-02-16T05:04:31.241Z,5.85
2017-02-16T05:05:40.243Z,5.89
2017-02-16T05:06:49.641Z,5.81
2017-02-16T05:07:58.647Z,5.9
2017-02-16T05:09:07.650Z,5.97
2017-02-16T05:10:16.659Z,5.93
2017-02-16T05:11:25.729Z,5.96
2017-02-16T05:12:34.814Z,5.89
2017-02-16T05:13:43.806Z,5.93
2017-02-16T05:14:53.220Z,5.91
2017-02-16T05:16:02.330Z,5.94
2017-02-16T05:17:11.344Z,5.96
2017-02-16T05:18:20.332Z,5.97
2017-02-16T05:19:29.317Z,5.9
2017-02-16T05:20:38.309Z,5.91
2017-02-16T05:21:47.391Z,5.83
2017-02-16T05:22:56.385Z,5.93
2017-02-16T05:24:05.385Z,5.99
2017-02-16T05:25:14.453Z,5.97
2017-02-16T05:26:23.850Z,5.96
2017-02-16T05:27:32.830Z,5.96
2017-02-16T05:28:41.830Z,5.9
2017-02-16T05:29:50.821Z,5.97
2017-02-16T05:30:59.833Z,5.91
2017-02-16T05:32:08.816Z,5.91
2017-02-16T05:33:17.933Z,5.85
2017-02-16T05:34:26.920Z,5.99
2017-02-16T05:35:35.901Z,5.91
2017-02-16T05:36:44.909Z,5.9
2017-02-16T05:37:53.904Z,5.91
2017-02-16T05:39:02.889Z,5.96
2017-02-16T05:40:11.958Z,5.86
2017-02-16T05:41:20.972Z,5.9
2017-02-16T05:42:29.973Z,5.99
2017-02-16T05:43:38.962Z,5.85
2017-02-16T05:44:48.456Z,5.89
2017-02-16T05:45:57.444Z,5.94
2017-02-16T05:47:06.537Z,5.83
2017-02-16T05:48:15.528Z,5.83
2017-02-16T05:49:24.532Z,5.83
2017-02-16T05:50:33.616Z,5.85
2017-02-16T05:51:42.607Z,5.89
2017-02-16T05:52:51.595Z,5.91
2017-02-16T05:54:00.580Z,5.89
2017-02-16T05:55:09.594Z,5.9
2017-02-16T05:56:18.591Z,5.89
2017-02-16T05:57:27.573Z,5.82
2017-02-16T05:58:36.577Z,5.85
2017-02-16T05:59:45.569Z,5.78
2017-02-16T06:00:55.049Z,5.86
2017-02-16T06:02:04.040Z,5.85
2017-02-16T06:03:13.034Z,5.86
2017-02-16T06:04:22.210Z,5.78
2017-02-16T06:05:31.210Z,5.81
2017-02-16T06:06:40.210Z,5.83
2017-02-16T06:07:49.208Z,5.79
2017-02-16T06:08:58.294Z,5.82
2017-02-16T06:10:07.290Z,5.76
2017-02-16T06:11:16.384Z,5.82
2017-02-16T06:12:25.391Z,5.83
2017-02-16T06:13:34.463Z,5.74
2017-02-16T06:14:43.442Z,5.83
2017-02-16T06:15:52.438Z,5.86
2017-02-16T06:17:01.444Z,5.85
2017-02-16T06:18:10.444Z,5.94
2017-02-16T06:19:19.439Z,5.83
2017-02-16T06:20:28.438Z,5.89
2017-02-16T06:21:37.425Z,5.83
2017-02-16T06:22:46.414Z,5.9
2017-02-16T06:23:55.404Z,5.89
2017-02-16T06:25:04.396Z,5.89
2017-02-16T06:26:13.384Z,5.85
2017-02-16T06:27:22.397Z,5.9
2017-02-16T06:28:31.398Z,5.86
2017-02-16T06:29:40.384Z,5.9
2017-02-16T06:30:49.448Z,5.89
2017-02-16T06:31:58.543Z,5.85
2017-02-16T06:33:07.545Z,5.86
2017-02-16T06:34:16.541Z,5.79
2017-02-16T06:35:25.539Z,5.86
2017-02-16T06:36:34.550Z,5.83
2017-02-16T06:37:43.537Z,5.89
2017-02-16T06:38:52.541Z,5.89
2017-02-16T06:40:01.522Z,5.89
2017-02-16T06:41:10.516Z,5.93
2017-02-16T06:42:19.524Z,5.94
2017-02-16T06:43:28.514Z,5.86
2017-02-16T06:44:37.511Z,5.93
2017-02-16T06:45:46.510Z,5.89
2017-02-16T06:46:55.509Z,5.91
2017-02-16T06:48:04.995Z,5.86
2017-02-16T06:49:13.975Z,5.93
2017-02-16T06:50:22.954Z,5.94
2017-02-16T06:51:32.051Z,5.94
2017-02-16T06:52:41.034Z,5.85
2017-02-16T06:53:50.106Z,5.96
2017-02-16T06:54:59.113Z,5.99
2017-02-16T06:56:08.106Z,5.97
2017-02-16T06:57:17.100Z,6.03
2017-02-16T06:58:26.112Z,6.04
2017-02-16T06:59:35.097Z,5.94
2017-02-16T07:00:44.120Z,6
2017-02-16T07:01:53.115Z,6.03
2017-02-16T07:03:02.131Z,5.94
2017-02-16T07:04:11.136Z,5.94
2017-02-16T07:05:20.140Z,5.93
2017-02-16T07:06:29.582Z,5.96
2017-02-16T07:07:38.593Z,6.01
2017-02-16T07:08:47.623Z,6
2017-02-16T07:09:56.722Z,6
2017-02-16T07:11:05.715Z,5.9
2017-02-16T07:12:14.712Z,6.03
2017-02-16T07:13:24.126Z,6.01
2017-02-16T07:14:33.132Z,6.03
2017-02-16T07:15:42.134Z,6.09
2017-02-16T07:16:51.136Z,6.06
2017-02-16T07:18:00.575Z,6.08
2017-02-16T07:19:09.555Z,6
2017-02-16T07:20:18.546Z,6.15
2017-02-16T07:21:27.942Z,6.18
2017-02-16T07:22:38.960Z,6.18
2017-02-16T07:23:50.145Z,6.12
2017-02-16T07:24:59.533Z,6.25
2017-02-16T07:26:10.484Z,6.3
2017-02-16T07:27:22.185Z,6.17
2017-02-16T07:28:32.425Z,6.18
2017-02-16T07:29:42.111Z,6.21
2017-02-16T07:30:51.103Z,6.28
2017-02-16T07:32:00.095Z,6.28
2017-02-16T07:33:09.760Z,6.25
2017-02-16T07:34:19.052Z,6.27
2017-02-16T07:35:28.391Z,6.3
2017-02-16T07:36:38.039Z,6.33
2017-02-16T07:37:47.386Z,6.22
2017-02-16T07:38:56.464Z,6.3
2017-02-16T07:40:07.043Z,6.33
2017-02-16T07:41:17.862Z,6.28
2017-02-16T07:42:27.994Z,6.43
2017-02-16T07:43:37.515Z,6.33
2017-02-16T07:44:46.509Z,6.49
2017-02-16T07:45:56.203Z,6.46
2017-02-16T07:47:06.331Z,6.4
2017-02-16T07:48:15.325Z,6.4
2017-02-16T07:49:24.330Z,6.49
2017-02-16T07:50:33.349Z,6.49
2017-02-16T07:51:42.867Z,6.43
2017-02-16T07:52:52.761Z,6.48
2017-02-16T07:54:01.964Z,6.56
2017-02-16T07:55:12.615Z,6.55
2017-02-16T07:56:21.625Z,6.61
2017-02-16T07:57:32.336Z,6.56
2017-02-16T07:58:41.336Z,6.62
2017-02-16T07:59:51.691Z,6.62
2017-02-16T08:01:00.954Z,6.64
2017-02-16T08:02:10.950Z,6.7
2017-02-16T08:03:20.312Z,6.62
2017-02-16T08:04:30.526Z,6.71
2017-02-16T08:05:41.393Z,6.8
2017-02-16T08:06:51.005Z,6.88
2017-02-16T08:08:00.014Z,6.89
2017-02-16T08:09:10.776Z,6.89
2017-02-16T08:10:19.805Z,6.85
2017-02-16T08:11:29.409Z,6.81
2017-02-16T08:12:39.809Z,6.87
2017-02-16T08:13:49.397Z,6.92
2017-02-16T08:14:59.340Z,6.91
2017-02-16T08:16:08.672Z,6.91
2017-02-16T08:17:18.232Z,6.87
2017-02-16T08:18:28.507Z,6.97
2017-02-16T08:19:38.545Z,7.05
2017-02-16T08:20:49.446Z,7.02
2017-02-16T08:21:58.458Z,7.07
2017-02-16T08:23:08.070Z,7.17
2017-02-16T08:24:17.668Z,7.13
2017-02-16T08:25:26.666Z,7.09
2017-02-16T08:26:35.654Z,7.2
2017-02-16T08:27:44.653Z,7.21
2017-02-16T08:28:53.733Z,7.21
2017-02-16T08:30:02.722Z,7.21
2017-02-16T08:31:11.742Z,7.3
2017-02-16T08:32:20.748Z,7.24
2017-02-16T08:33:29.741Z,7.28
2017-02-16T08:34:38.743Z,7.34
2017-02-16T08:35:47.841Z,7.37
2017-02-16T08:36:56.827Z,7.45
2017-02-16T08:38:05.818Z,7.5
2017-02-16T08:39:14.819Z,7.52
2017-02-16T08:40:23.814Z,7.58
2017-02-16T08:41:33.050Z,7.5
2017-02-16T08:42:42.038Z,7.53
2017-02-16T08:43:51.111Z,7.63
2017-02-16T08:45:00.108Z,7.69
2017-02-16T08:46:09.107Z,7.72
2017-02-16T08:47:18.182Z,7.74
2017-02-16T08:48:27.170Z,7.86
2017-02-16T08:49:36.160Z,7.8
2017-02-16T08:50:45.162Z,7.82
2017-02-16T08:51:54.145Z,7.83
2017-02-16T08:53:03.872Z,7.85
2017-02-16T08:54:14.224Z,7.83
2017-02-16T08:55:23.220Z,7.86
2017-02-16T08:56:32.264Z,7.93
2017-02-16T08:57:41.256Z,8.01
2017-02-16T08:58:50.324Z,7.95
2017-02-16T08:59:59.341Z,8.01
2017-02-16T09:01:08.435Z,8.1
2017-02-16T09:02:17.460Z,8.12
2017-02-16T09:03:26.929Z,8.22
2017-02-16T09:04:37.551Z,8.29
2017-02-16T09:05:50.120Z,8.22
2017-02-16T09:07:00.352Z,8.4
2017-02-16T09:08:10.972Z,8.47
2017-02-16T09:09:21.302Z,8.48
2017-02-16T09:10:30.299Z,8.53
2017-02-16T09:11:39.289Z,8.48
2017-02-16T09:12:48.466Z,8.59
2017-02-16T09:13:57.467Z,8.61
2017-02-16T09:15:06.461Z,8.59
2017-02-16T09:16:15.455Z,8.76
2017-02-16T09:17:24.439Z,8.87
2017-02-16T09:18:33.435Z,8.87
2017-02-16T09:19:42.519Z,8.96
2017-02-16T09:20:51.514Z,8.95
2017-02-16T09:22:00.510Z,8.94
2017-02-16T09:23:09.510Z,8.91
2017-02-16T09:24:18.523Z,8.87
2017-02-16T09:25:27.526Z,8.86
2017-02-16T09:26:36.524Z,8.98
2017-02-16T09:27:45.946Z,8.92
2017-02-16T09:28:54.937Z,8.98
2017-02-16T09:30:04.026Z,8.98
2017-02-16T09:31:13.521Z,8.99
2017-02-16T09:32:22.525Z,9.1
2017-02-16T09:33:31.608Z,9.17
2017-02-16T09:34:40.909Z,9.11
2017-02-16T09:35:50.758Z,9.14
2017-02-16T09:37:00.192Z,9.08
2017-02-16T09:38:09.796Z,9.11
2017-02-16T09:39:20.927Z,9.14
2017-02-16T09:40:31.972Z,9.21
2017-02-16T09:41:42.017Z,9.2
2017-02-16T09:42:52.155Z,9.15
2017-02-16T09:44:03.098Z,9.23
2017-02-16T09:45:12.446Z,9.31
2017-02-16T09:46:21.938Z,9.29
2017-02-16T09:47:31.491Z,9.39
2017-02-16T09:48:41.365Z,9.39
2017-02-16T09:49:50.763Z,9.46
2017-02-16T09:51:00.345Z,9.48
2017-02-16T09:52:09.940Z,9.5
2017-02-16T09:53:20.217Z,9.48
2017-02-16T09:54:29.323Z,9.48
2017-02-16T09:55:38.325Z,9.54
2017-02-16T09:56:47.324Z,9.54
2017-02-16T09:57:56.448Z,9.66
2017-02-16T09:59:05.481Z,9.69
2017-02-16T10:00:14.478Z,9.65
2017-02-16T10:01:23.485Z,9.66
2017-02-16T10:02:33.425Z,9.75
2017-02-16T10:03:42.424Z,9.68
2017-02-16T10:04:52.587Z,9.78
2017-02-16T10:06:03.326Z,9.81
2017-02-16T10:07:13.320Z,9.78
2017-02-16T10:08:22.325Z,9.89
2017-02-16T10:09:32.600Z,9.87
2017-02-16T10:10:42.041Z,9.89
2017-02-16T10:11:51.380Z,9.97
2017-02-16T10:13:00.919Z,10.01
2017-02-16T10:14:11.351Z,10.09
2017-02-16T10:15:20.633Z,10.09
2017-02-16T10:16:30.868Z,10.17
2017-02-16T10:17:40.709Z,10.2
2017-02-16T10:18:49.916Z,10.23
2017-02-16T10:19:59.339Z,10.3
2017-02-16T10:21:09.638Z,10.29
2017-02-16T10:23:14.575Z,10.3
2017-02-16T10:24:24.820Z,10.42
2017-02-16T10:25:33.830Z,10.45
2017-02-16T10:26:44.621Z,10.51
2017-02-16T10:27:54.505Z,10.47
2017-02-16T10:29:03.919Z,10.48
2017-02-16T10:30:14.100Z,10.56
2017-02-16T10:31:23.180Z,10.51
2017-02-16T10:32:33.533Z,10.61
2017-02-16T10:33:43.432Z,10.61
2017-02-16T10:34:53.482Z,10.55
2017-02-16T10:36:02.481Z,10.67
2017-02-16T10:37:11.889Z,10.74
2017-02-16T10:38:20.905Z,10.64
2017-02-16T10:39:29.917Z,10.66
2017-02-16T10:40:38.994Z,10.74
2017-02-16T10:41:47.980Z,10.71
2017-02-16T10:42:57.012Z,10.79
2017-02-16T10:44:06.020Z,10.81
2017-02-16T10:45:15.026Z,10.85
2017-02-16T10:46:24.018Z,10.85
2017-02-16T10:47:33.016Z,10.92
2017-02-16T10:48:41.997Z,10.94
2017-02-16T10:49:50.985Z,11.04
2017-02-16T10:51:00.399Z,11.03
2017-02-16T10:52:09.397Z,11.09
2017-02-16T10:53:18.398Z,11.04
2017-02-16T10:54:27.402Z,11.19
2017-02-16T10:55:36.416Z,11.1
2017-02-16T10:56:45.826Z,11.22
2017-02-16T10:57:54.820Z,11.14
2017-02-16T10:59:03.845Z,11.27
2017-02-16T11:00:12.962Z,11.29
2017-02-16T11:01:21.993Z,11.28
2017-02-16T11:02:31.390Z,11.29
2017-02-16T11:03:40.685Z,11.43
2017-02-16T11:04:50.547Z,11.36
2017-02-16T11:05:59.733Z,11.44
2017-02-16T11:07:09.950Z,11.42
2017-02-16T11:08:19.851Z,11.49
2017-02-16T11:09:29.286Z,11.4
2017-02-16T11:10:39.398Z,11.44
2017-02-16T11:11:48.398Z,11.54
2017-02-16T11:12:58.306Z,11.65
2017-02-16T11:14:07.310Z,11.7
2017-02-16T11:15:18.238Z,11.62
2017-02-16T11:16:27.268Z,11.7
2017-02-16T11:17:36.918Z,11.64
2017-02-16T11:18:46.000Z,11.73
2017-02-16T11:19:55.841Z,11.65
2017-02-16T11:21:06.371Z,11.79
2017-02-16T11:22:16.346Z,11.86
2017-02-16T11:23:26.545Z,11.83
2017-02-16T11:24:36.804Z,11.85
2017-02-16T11:25:46.218Z,11.78
2017-02-16T11:26:55.224Z,11.85
2017-02-16T11:28:05.070Z,11.83
2017-02-16T11:29:14.105Z,11.8
2017-02-16T11:30:24.107Z,11.86
2017-02-16T11:31:33.481Z,11.88
2017-02-16T11:32:43.305Z,11.9
2017-02-16T11:33:52.799Z,11.98
2017-02-16T11:35:02.495Z,11.96
2017-02-16T11:36:11.541Z,11.95
2017-02-16T11:37:21.375Z,12.05
2017-02-16T11:38:30.849Z,11.96
2017-02-16T11:39:39.915Z,12.09
2017-02-16T11:40:49.752Z,12.12
2017-02-16T11:41:58.962Z,12.09
2017-02-16T11:43:08.228Z,12.13
2017-02-16T11:44:19.456Z,12.21
2017-02-16T11:45:34.904Z,12.23
2017-02-16T11:46:43.904Z,12.2
2017-02-16T11:47:52.900Z,12.21
2017-02-16T11:49:01.932Z,12.23
2017-02-16T11:50:10.922Z,12.32
2017-02-16T11:51:19.939Z,12.34
2017-02-16T11:52:29.113Z,12.32
2017-02-16T11:53:38.106Z,12.37
2017-02-16T11:54:47.106Z,12.38
2017-02-16T11:55:56.135Z,12.38
2017-02-16T11:57:05.132Z,12.46
2017-02-16T11:58:14.122Z,12.5
2017-02-16T11:59:23.113Z,12.5
2017-02-16T12:00:32.166Z,12.53
2017-02-16T12:01:41.188Z,12.52
2017-02-16T12:02:50.232Z,12.57
2017-02-16T12:03:59.310Z,12.6
2017-02-16T12:05:08.336Z,12.68
2017-02-16T12:06:17.321Z,12.64
2017-02-16T12:07:26.322Z,12.68
2017-02-16T12:08:35.319Z,12.67
2017-02-16T12:09:44.304Z,12.75
2017-02-16T12:10:53.296Z,12.7
2017-02-16T12:12:02.333Z,12.68
2017-02-16T12:13:11.331Z,12.79
2017-02-16T12:14:20.315Z,12.74
2017-02-16T12:15:29.303Z,12.74
2017-02-16T12:16:39.257Z,12.85
2017-02-16T12:17:48.279Z,12.89
2017-02-16T12:18:57.357Z,12.87
2017-02-16T12:20:06.356Z,12.83
2017-02-16T12:21:15.771Z,12.89
2017-02-16T12:22:24.786Z,12.9
2017-02-16T12:23:33.866Z,12.89
2017-02-16T12:24:42.871Z,12.92
2017-02-16T12:25:51.879Z,12.95
2017-02-16T12:27:00.983Z,12.93
2017-02-16T12:28:09.980Z,12.97
2017-02-16T12:29:18.988Z,13
2017-02-16T12:30:28.091Z,13
2017-02-16T12:31:37.288Z,13.07
2017-02-16T12:32:47.204Z,13.07
2017-02-16T12:33:56.197Z,13.07
2017-02-16T12:35:05.220Z,13.08
2017-02-16T12:36:14.207Z,13.1
2017-02-16T12:37:24.086Z,13.11
2017-02-16T12:38:33.829Z,13.11
2017-02-16T12:39:43.709Z,13.12
2017-02-16T12:40:53.408Z,13.14
2017-02-16T12:42:02.779Z,13.17
2017-02-16T12:43:12.644Z,13.15
2017-02-16T12:44:21.748Z,13.23
2017-02-16T12:45:31.619Z,13.14
2017-02-16T12:46:40.909Z,13.12
2017-02-16T12:47:51.303Z,13.15
2017-02-16T12:49:00.302Z,13.22
2017-02-16T12:50:09.378Z,13.2
2017-02-16T12:51:19.105Z,13.22
2017-02-16T12:52:28.208Z,13.22
2017-02-16T12:53:38.373Z,13.23
2017-02-16T12:54:47.390Z,13.23
2017-02-16T12:55:57.518Z,13.23
2017-02-16T12:57:06.519Z,13.25
2017-02-16T12:58:16.619Z,13.23
2017-02-16T12:59:26.317Z,13.23
2017-02-16T13:00:35.581Z,13.19
2017-02-16T13:01:44.892Z,13.29
2017-02-16T13:02:55.137Z,13.22
2017-02-16T13:04:06.258Z,13.2
2017-02-16T13:05:15.243Z,13.25
2017-02-16T13:06:24.330Z,13.36
2017-02-16T13:07:33.311Z,13.32
2017-02-16T13:08:42.386Z,13.29
2017-02-16T13:09:51.387Z,13.28
2017-02-16T13:11:00.386Z,13.26
2017-02-16T13:12:09.378Z,13.42
2017-02-16T13:13:18.381Z,13.29
2017-02-16T13:14:27.384Z,13.28
2017-02-16T13:15:36.375Z,13.38
2017-02-16T13:16:46.170Z,13.42
2017-02-16T13:17:55.267Z,13.44
2017-02-16T13:19:04.270Z,13.39
2017-02-16T13:20:13.255Z,13.39
2017-02-16T13:21:22.834Z,13.41
2017-02-16T13:22:31.851Z,13.39
2017-02-16T13:23:40.849Z,13.41
2017-02-16T13:24:49.880Z,13.49
2017-02-16T13:25:58.955Z,13.54
2017-02-16T13:27:07.952Z,13.59
2017-02-16T13:28:17.348Z,13.63
2017-02-16T13:29:26.343Z,13.64
2017-02-16T13:30:35.335Z,13.73
2017-02-16T13:31:45.732Z,13.63
2017-02-16T13:32:55.933Z,13.64
2017-02-16T13:34:04.944Z,13.6
2017-02-16T13:35:13.966Z,13.66
2017-02-16T13:36:23.108Z,13.57
2017-02-16T13:37:32.271Z,13.67
2017-02-16T13:38:41.600Z,13.63
2017-02-16T13:39:51.917Z,13.7
2017-02-16T13:41:01.537Z,13.66
2017-02-16T13:42:12.345Z,13.71
2017-02-16T13:43:24.886Z,13.66
2017-02-16T13:44:41.047Z,13.6
2017-02-16T13:45:59.312Z,13.6
2017-02-16T13:47:16.651Z,13.67
2017-02-16T13:48:34.229Z,13.66
2017-02-16T13:49:52.296Z,13.71
2017-02-16T13:51:06.541Z,13.73
2017-02-16T13:52:18.542Z,13.75
2017-02-16T13:53:29.019Z,13.7
2017-02-16T13:54:45.391Z,13.81
2017-02-16T13:56:05.035Z,13.77
2017-02-16T13:57:21.526Z,13.79
2017-02-16T13:58:33.014Z,13.77
2017-02-16T13:59:42.174Z,13.73
2017-02-16T14:00:51.434Z,13.81
2017-02-16T14:02:06.896Z,13.75
2017-02-16T14:03:26.934Z,13.75
2017-02-16T14:04:50.669Z,13.78
2017-02-16T14:06:12.185Z,13.73
2017-02-16T14:07:26.864Z,13.75
2017-02-16T14:08:35.863Z,13.69
2017-02-16T14:09:45.082Z,13.71
2017-02-16T14:10:54.067Z,13.69
2017-02-16T14:12:03.061Z,13.75
2017-02-16T14:13:12.783Z,13.73
2017-02-16T14:14:22.396Z,13.69
2017-02-16T14:15:35.428Z,13.7
2017-02-16T14:16:51.857Z,13.66
2017-02-16T14:18:06.555Z,13.71
2017-02-16T14:19:21.210Z,13.67
2017-02-16T14:20:37.431Z,13.69
2017-02-16T14:21:55.125Z,13.71
2017-02-16T14:23:15.913Z,13.67
2017-02-16T14:24:36.085Z,13.63
2017-02-16T14:25:52.394Z,13.66
2017-02-16T14:27:09.647Z,13.64
2017-02-16T14:28:23.994Z,13.63
2017-02-16T14:29:37.116Z,13.64
2017-02-16T14:30:46.470Z,13.6
2017-02-16T14:31:55.465Z,13.67
2017-02-16T14:33:04.547Z,13.64
2017-02-16T14:34:13.531Z,13.55
2017-02-16T14:35:22.520Z,13.57
2017-02-16T14:36:32.031Z,13.6
2017-02-16T14:37:43.995Z,13.59
2017-02-16T14:38:55.849Z,13.59
2017-02-16T14:40:06.317Z,13.59
2017-02-16T14:41:15.494Z,13.6
2017-02-16T14:42:26.134Z,13.62
2017-02-16T14:43:36.918Z,13.55
2017-02-16T14:44:45.927Z,13.52
2017-02-16T14:45:56.016Z,13.46
2017-02-16T14:47:05.011Z,13.44
2017-02-16T14:48:14.534Z,13.41
2017-02-16T14:49:23.542Z,13.41
2017-02-16T14:50:32.522Z,13.48
2017-02-16T14:51:41.605Z,13.33
2017-02-16T14:52:50.602Z,13.38
2017-02-16T14:53:59.583Z,13.28
2017-02-16T14:55:08.567Z,13.23
2017-02-16T14:56:17.546Z,13.2
2017-02-16T14:57:26.536Z,13.26
2017-02-16T14:58:35.536Z,13.22
2017-02-16T14:59:44.531Z,13.22
2017-02-16T15:00:53.512Z,13.14
2017-02-16T15:02:02.928Z,13.11
2017-02-16T15:03:12.043Z,13.14
2017-02-16T15:04:21.041Z,13.19
2017-02-16T15:05:30.027Z,13.19
2017-02-16T15:06:39.034Z,13.11
2017-02-16T15:07:48.031Z,13.12
2017-02-16T15:08:57.058Z,13.14
2017-02-16T15:10:06.060Z,13.12
2017-02-16T15:11:15.149Z,13.11
2017-02-16T15:12:24.153Z,13.1
2017-02-16T15:13:33.246Z,13.01
2017-02-16T15:14:42.344Z,13.07
2017-02-16T15:15:51.337Z,13.05
2017-02-16T15:17:00.333Z,13
2017-02-16T15:18:09.328Z,13.08
2017-02-16T15:19:18.327Z,13.07
2017-02-16T15:20:27.357Z,13.07